sensor_id;sensor_type;location;lat;lon;timestamp;P1;durP1;ratioP1;P2;durP2;ratioP2
3036;SDS011;1528;52.550;13.408;2023-04-19T00:00:15;18.00;;;16.67;;
3036;SDS011;1528;52.550;13.408;2023-04-19T00:03:01;14.73;;;14.03;;
3036;SDS011;1528;52.550;13.408;2023-04-19T00:05:47;16.23;;;15.43;;
3036;SDS011;1528;52.550;13.408;2023-04-19T00:08:33;13.47;;;12.57;;
3036;SDS011;1528;52.550;13.408;2023-04-19T00:11:20;15.17;;;14.13;;
3036;SDS011;1528;52.550;13.408;2023-04-19T00:14:06;15.03;;;14.23;;
3036;SDS011;1528;52.550;13.408;2023-04-19T00:16:51;14.33;;;13.63;;
3036;SDS011;1528;52.550;13.408;2023-04-19T00:19:37;14.33;;;13.63;;
3036;SDS011;1528;52.550;13.408;2023-04-19T00:22:23;14.63;;;14.03;;
3036;SDS011;1528;52.550;13.408;2023-04-19T00:25:08;14.23;;;13.43;;
3036;SDS011;1528;52.550;13.408;2023-04-19T00:27:55;13.83;;;12.87;;
3036;SDS011;1528;52.550;13.408;2023-04-19T00:30:41;14.70;;;14.00;;
3036;SDS011;1528;52.550;13.408;2023-04-19T00:33:26;13.57;;;12.97;;
3036;SDS011;1528;52.550;13.408;2023-04-19T00:36:12;13.33;;;12.53;;
3036;SDS011;1528;52.550;13.408;2023-04-19T00:38:58;15.00;;;14.20;;
3036;SDS011;1528;52.550;13.408;2023-04-19T00:41:43;13.70;;;13.00;;
3036;SDS011;1528;52.550;13.408;2023-04-19T00:44:30;13.10;;;12.27;;
3036;SDS011;1528;52.550;13.408;2023-04-19T00:47:16;13.90;;;13.10;;
3036;SDS011;1528;52.550;13.408;2023-04-19T00:50:01;12.67;;;12.07;;
3036;SDS011;1528;52.550;13.408;2023-04-19T00:52:48;12.77;;;12.17;;
3036;SDS011;1528;52.550;13.408;2023-04-19T00:55:35;12.60;;;12.00;;
3036;SDS011;1528;52.550;13.408;2023-04-19T00:58:22;13.77;;;12.97;;
3036;SDS011;1528;52.550;13.408;2023-04-19T01:01:09;14.50;;;13.63;;
3036;SDS011;1528;52.550;13.408;2023-04-19T01:03:55;12.80;;;12.10;;
3036;SDS011;1528;52.550;13.408;2023-04-19T01:06:40;12.57;;;11.73;;
3036;SDS011;1528;52.550;13.408;2023-04-19T01:09:26;13.47;;;12.87;;
3036;SDS011;1528;52.550;13.408;2023-04-19T01:12:11;13.03;;;12.37;;
3036;SDS011;1528;52.550;13.408;2023-04-19T01:14:57;14.87;;;13.97;;
3036;SDS011;1528;52.550;13.408;2023-04-19T01:17:44;14.83;;;14.20;;
3036;SDS011;1528;52.550;13.408;2023-04-19T01:20:30;16.73;;;15.93;;
3036;SDS011;1528;52.550;13.408;2023-04-19T01:23:16;17.20;;;16.60;;
3036;SDS011;1528;52.550;13.408;2023-04-19T01:26:02;15.20;;;14.50;;
3036;SDS011;1528;52.550;13.408;2023-04-19T01:28:48;15.70;;;15.00;;
3036;SDS011;1528;52.550;13.408;2023-04-19T01:31:34;17.73;;;16.93;;
3036;SDS011;1528;52.550;13.408;2023-04-19T01:34:19;15.67;;;14.97;;
3036;SDS011;1528;52.550;13.408;2023-04-19T01:37:05;15.00;;;13.90;;
3036;SDS011;1528;52.550;13.408;2023-04-19T01:39:52;15.77;;;15.03;;
3036;SDS011;1528;52.550;13.408;2023-04-19T01:42:38;13.97;;;13.30;;
3036;SDS011;1528;52.550;13.408;2023-04-19T01:45:23;15.87;;;15.20;;
3036;SDS011;1528;52.550;13.408;2023-04-19T01:48:09;15.33;;;14.53;;
3036;SDS011;1528;52.550;13.408;2023-04-19T01:50:55;15.03;;;14.23;;
3036;SDS011;1528;52.550;13.408;2023-04-19T01:53:40;13.27;;;12.57;;
3036;SDS011;1528;52.550;13.408;2023-04-19T01:56:27;13.80;;;13.10;;
3036;SDS011;1528;52.550;13.408;2023-04-19T01:59:13;16.57;;;15.67;;
3036;SDS011;1528;52.550;13.408;2023-04-19T02:01:59;16.30;;;15.40;;
3036;SDS011;1528;52.550;13.408;2023-04-19T02:04:44;15.93;;;15.00;;
3036;SDS011;1528;52.550;13.408;2023-04-19T02:14:53;15.13;;;14.23;;
3036;SDS011;1528;52.550;13.408;2023-04-19T02:17:39;16.10;;;15.40;;
3036;SDS011;1528;52.550;13.408;2023-04-19T02:20:26;14.40;;;13.67;;
3036;SDS011;1528;52.550;13.408;2023-04-19T02:23:11;13.83;;;13.13;;
3036;SDS011;1528;52.550;13.408;2023-04-19T02:25:57;12.70;;;12.00;;
3036;SDS011;1528;52.550;13.408;2023-04-19T02:28:44;13.37;;;12.50;;
3036;SDS011;1528;52.550;13.408;2023-04-19T02:31:31;14.63;;;13.87;;
3036;SDS011;1528;52.550;13.408;2023-04-19T02:34:16;13.83;;;13.20;;
3036;SDS011;1528;52.550;13.408;2023-04-19T02:37:02;14.50;;;14.00;;
3036;SDS011;1528;52.550;13.408;2023-04-19T02:39:47;13.80;;;13.20;;
3036;SDS011;1528;52.550;13.408;2023-04-19T02:42:33;14.20;;;13.33;;
3036;SDS011;1528;52.550;13.408;2023-04-19T02:45:19;13.27;;;12.67;;
3036;SDS011;1528;52.550;13.408;2023-04-19T02:48:06;14.30;;;13.70;;
3036;SDS011;1528;52.550;13.408;2023-04-19T02:50:52;13.43;;;12.77;;
3036;SDS011;1528;52.550;13.408;2023-04-19T02:53:37;14.30;;;13.60;;
3036;SDS011;1528;52.550;13.408;2023-04-19T02:56:23;13.90;;;13.40;;
3036;SDS011;1528;52.550;13.408;2023-04-19T02:59:08;11.60;;;11.10;;
3036;SDS011;1528;52.550;13.408;2023-04-19T03:01:54;14.70;;;14.00;;
3036;SDS011;1528;52.550;13.408;2023-04-19T03:04:41;14.53;;;13.73;;
3036;SDS011;1528;52.550;13.408;2023-04-19T03:07:27;15.20;;;14.60;;
3036;SDS011;1528;52.550;13.408;2023-04-19T03:10:12;13.70;;;13.00;;
3036;SDS011;1528;52.550;13.408;2023-04-19T03:12:58;14.70;;;14.10;;
3036;SDS011;1528;52.550;13.408;2023-04-19T03:15:44;14.43;;;13.63;;
3036;SDS011;1528;52.550;13.408;2023-04-19T03:18:29;16.43;;;15.63;;
3036;SDS011;1528;52.550;13.408;2023-04-19T03:21:16;13.80;;;13.10;;
3036;SDS011;1528;52.550;13.408;2023-04-19T03:24:01;13.10;;;12.40;;
3036;SDS011;1528;52.550;13.408;2023-04-19T03:26:47;15.70;;;15.00;;
3036;SDS011;1528;52.550;13.408;2023-04-19T03:29:33;16.20;;;15.40;;
3036;SDS011;1528;52.550;13.408;2023-04-19T03:32:19;14.37;;;13.83;;
3036;SDS011;1528;52.550;13.408;2023-04-19T03:35:05;12.30;;;11.80;;
3036;SDS011;1528;52.550;13.408;2023-04-19T03:37:52;13.80;;;13.17;;
3036;SDS011;1528;52.550;13.408;2023-04-19T03:40:37;14.57;;;14.00;;
3036;SDS011;1528;52.550;13.408;2023-04-19T03:43:23;13.53;;;12.73;;
3036;SDS011;1528;52.550;13.408;2023-04-19T03:46:09;15.10;;;14.20;;
3036;SDS011;1528;52.550;13.408;2023-04-19T03:48:54;13.57;;;13.00;;
3036;SDS011;1528;52.550;13.408;2023-04-19T03:51:40;15.00;;;14.20;;
3036;SDS011;1528;52.550;13.408;2023-04-19T03:54:27;12.67;;;12.07;;
3036;SDS011;1528;52.550;13.408;2023-04-19T03:57:13;13.40;;;12.70;;
3036;SDS011;1528;52.550;13.408;2023-04-19T04:00:00;13.40;;;12.90;;
3036;SDS011;1528;52.550;13.408;2023-04-19T04:02:49;14.63;;;13.77;;
3036;SDS011;1528;52.550;13.408;2023-04-19T04:05:35;12.40;;;11.80;;
3036;SDS011;1528;52.550;13.408;2023-04-19T04:08:21;13.47;;;12.87;;
3036;SDS011;1528;52.550;13.408;2023-04-19T04:11:08;12.57;;;12.07;;
3036;SDS011;1528;52.550;13.408;2023-04-19T04:13:54;16.53;;;15.67;;
3036;SDS011;1528;52.550;13.408;2023-04-19T04:16:40;13.67;;;13.00;;
3036;SDS011;1528;52.550;13.408;2023-04-19T04:19:25;14.40;;;13.70;;
3036;SDS011;1528;52.550;13.408;2023-04-19T04:22:11;12.00;;;11.50;;
3036;SDS011;1528;52.550;13.408;2023-04-19T04:24:57;14.17;;;13.47;;
3036;SDS011;1528;52.550;13.408;2023-04-19T04:27:45;16.30;;;15.60;;
3036;SDS011;1528;52.550;13.408;2023-04-19T04:30:31;35.63;;;32.13;;
3036;SDS011;1528;52.550;13.408;2023-04-19T04:33:17;19.87;;;18.13;;
3036;SDS011;1528;52.550;13.408;2023-04-19T04:36:04;16.50;;;15.70;;
3036;SDS011;1528;52.550;13.408;2023-04-19T04:38:50;16.37;;;15.30;;
3036;SDS011;1528;52.550;13.408;2023-04-19T04:41:35;14.27;;;13.53;;
3036;SDS011;1528;52.550;13.408;2023-04-19T04:44:25;15.33;;;14.67;;
3036;SDS011;1528;52.550;13.408;2023-04-19T04:47:11;16.73;;;16.00;;
3036;SDS011;1528;52.550;13.408;2023-04-19T04:49:57;16.30;;;15.60;;
3036;SDS011;1528;52.550;13.408;2023-04-19T04:52:43;15.43;;;14.83;;
3036;SDS011;1528;52.550;13.408;2023-04-19T04:55:28;15.60;;;14.97;;
3036;SDS011;1528;52.550;13.408;2023-04-19T04:58:14;13.43;;;12.70;;
3036;SDS011;1528;52.550;13.408;2023-04-19T05:01:01;15.93;;;15.27;;
3036;SDS011;1528;52.550;13.408;2023-04-19T05:03:47;14.23;;;13.40;;
3036;SDS011;1528;52.550;13.408;2023-04-19T05:06:32;14.80;;;14.20;;
3036;SDS011;1528;52.550;13.408;2023-04-19T05:09:18;14.17;;;13.53;;
3036;SDS011;1528;52.550;13.408;2023-04-19T05:12:04;15.57;;;14.97;;
3036;SDS011;1528;52.550;13.408;2023-04-19T05:14:50;16.67;;;15.97;;
3036;SDS011;1528;52.550;13.408;2023-04-19T05:17:37;16.60;;;15.50;;
3036;SDS011;1528;52.550;13.408;2023-04-19T05:20:23;15.87;;;15.07;;
3036;SDS011;1528;52.550;13.408;2023-04-19T05:23:09;16.20;;;15.17;;
3036;SDS011;1528;52.550;13.408;2023-04-19T05:25:54;17.10;;;16.20;;
3036;SDS011;1528;52.550;13.408;2023-04-19T05:28:40;14.20;;;13.60;;
3036;SDS011;1528;52.550;13.408;2023-04-19T05:31:27;13.23;;;12.50;;
3036;SDS011;1528;52.550;13.408;2023-04-19T05:34:14;13.63;;;12.83;;
3036;SDS011;1528;52.550;13.408;2023-04-19T05:37:01;16.87;;;16.10;;
3036;SDS011;1528;52.550;13.408;2023-04-19T05:39:46;16.27;;;15.50;;
3036;SDS011;1528;52.550;13.408;2023-04-19T05:42:32;12.80;;;12.30;;
3036;SDS011;1528;52.550;13.408;2023-04-19T05:45:20;12.20;;;11.67;;
3036;SDS011;1528;52.550;13.408;2023-04-19T05:48:06;14.87;;;14.17;;
3036;SDS011;1528;52.550;13.408;2023-04-19T05:50:53;14.13;;;13.33;;
3036;SDS011;1528;52.550;13.408;2023-04-19T05:53:40;11.57;;;11.07;;
3036;SDS011;1528;52.550;13.408;2023-04-19T05:56:26;12.63;;;12.13;;
3036;SDS011;1528;52.550;13.408;2023-04-19T05:59:11;12.37;;;11.87;;
3036;SDS011;1528;52.550;13.408;2023-04-19T06:01:57;12.10;;;11.40;;
3036;SDS011;1528;52.550;13.408;2023-04-19T06:04:43;13.43;;;12.20;;
3036;SDS011;1528;52.550;13.408;2023-04-19T06:07:30;12.40;;;11.70;;
3036;SDS011;1528;52.550;13.408;2023-04-19T06:10:16;14.40;;;13.70;;
3036;SDS011;1528;52.550;13.408;2023-04-19T06:13:02;16.17;;;15.47;;
3036;SDS011;1528;52.550;13.408;2023-04-19T06:15:48;16.57;;;15.97;;
3036;SDS011;1528;52.550;13.408;2023-04-19T06:18:33;14.80;;;14.20;;
3036;SDS011;1528;52.550;13.408;2023-04-19T06:21:19;13.70;;;13.10;;
3036;SDS011;1528;52.550;13.408;2023-04-19T06:24:06;16.17;;;15.20;;
3036;SDS011;1528;52.550;13.408;2023-04-19T06:26:52;15.30;;;14.53;;
3036;SDS011;1528;52.550;13.408;2023-04-19T06:29:38;16.90;;;16.20;;
3036;SDS011;1528;52.550;13.408;2023-04-19T06:32:25;14.27;;;13.57;;
3036;SDS011;1528;52.550;13.408;2023-04-19T06:35:11;16.77;;;15.97;;
3036;SDS011;1528;52.550;13.408;2023-04-19T06:37:58;15.70;;;14.90;;
3036;SDS011;1528;52.550;13.408;2023-04-19T06:40:45;14.50;;;13.73;;
3036;SDS011;1528;52.550;13.408;2023-04-19T06:43:30;17.03;;;16.10;;
3036;SDS011;1528;52.550;13.408;2023-04-19T06:46:16;14.83;;;13.93;;
3036;SDS011;1528;52.550;13.408;2023-04-19T06:49:02;15.90;;;15.30;;
3036;SDS011;1528;52.550;13.408;2023-04-19T06:51:47;14.80;;;13.83;;
3036;SDS011;1528;52.550;13.408;2023-04-19T06:54:33;12.53;;;12.00;;
3036;SDS011;1528;52.550;13.408;2023-04-19T06:57:20;13.73;;;13.03;;
3036;SDS011;1528;52.550;13.408;2023-04-19T07:00:06;13.83;;;13.00;;
3036;SDS011;1528;52.550;13.408;2023-04-19T07:02:52;13.33;;;12.73;;
3036;SDS011;1528;52.550;13.408;2023-04-19T07:05:38;14.93;;;14.23;;
3036;SDS011;1528;52.550;13.408;2023-04-19T07:08:24;14.50;;;13.90;;
3036;SDS011;1528;52.550;13.408;2023-04-19T07:11:10;14.77;;;14.07;;
3036;SDS011;1528;52.550;13.408;2023-04-19T07:13:57;15.37;;;14.77;;
3036;SDS011;1528;52.550;13.408;2023-04-19T07:16:43;16.03;;;15.30;;
3036;SDS011;1528;52.550;13.408;2023-04-19T07:19:29;14.60;;;13.90;;
3036;SDS011;1528;52.550;13.408;2023-04-19T07:22:14;14.93;;;14.23;;
3036;SDS011;1528;52.550;13.408;2023-04-19T07:25:00;13.20;;;12.57;;
3036;SDS011;1528;52.550;13.408;2023-04-19T07:27:46;12.33;;;11.70;;
3036;SDS011;1528;52.550;13.408;2023-04-19T07:30:34;12.80;;;12.27;;
3036;SDS011;1528;52.550;13.408;2023-04-19T07:33:21;14.43;;;13.60;;
3036;SDS011;1528;52.550;13.408;2023-04-19T07:36:07;12.30;;;11.50;;
3036;SDS011;1528;52.550;13.408;2023-04-19T07:38:53;14.40;;;13.43;;
3036;SDS011;1528;52.550;13.408;2023-04-19T07:41:40;13.00;;;12.23;;
3036;SDS011;1528;52.550;13.408;2023-04-19T07:44:26;14.60;;;14.10;;
3036;SDS011;1528;52.550;13.408;2023-04-19T07:47:21;15.80;;;15.20;;
3036;SDS011;1528;52.550;13.408;2023-04-19T07:50:15;13.60;;;12.97;;
3036;SDS011;1528;52.550;13.408;2023-04-19T07:53:09;11.73;;;10.90;;
3036;SDS011;1528;52.550;13.408;2023-04-19T07:56:01;13.57;;;12.83;;
3036;SDS011;1528;52.550;13.408;2023-04-19T07:58:46;13.83;;;13.33;;
3036;SDS011;1528;52.550;13.408;2023-04-19T08:01:32;15.57;;;14.90;;
3036;SDS011;1528;52.550;13.408;2023-04-19T08:04:24;13.63;;;13.13;;
3036;SDS011;1528;52.550;13.408;2023-04-19T08:07:16;15.20;;;14.40;;
3036;SDS011;1528;52.550;13.408;2023-04-19T08:10:02;14.93;;;14.30;;
3036;SDS011;1528;52.550;13.408;2023-04-19T08:12:53;15.17;;;14.50;;
3036;SDS011;1528;52.550;13.408;2023-04-19T08:15:38;15.23;;;14.67;;
3036;SDS011;1528;52.550;13.408;2023-04-19T08:18:25;15.23;;;14.53;;
3036;SDS011;1528;52.550;13.408;2023-04-19T08:21:16;14.27;;;13.57;;
3036;SDS011;1528;52.550;13.408;2023-04-19T08:24:02;15.30;;;14.70;;
3036;SDS011;1528;52.550;13.408;2023-04-19T08:26:52;14.17;;;13.23;;
3036;SDS011;1528;52.550;13.408;2023-04-19T08:29:37;13.73;;;12.97;;
3036;SDS011;1528;52.550;13.408;2023-04-19T08:32:23;14.10;;;13.40;;
3036;SDS011;1528;52.550;13.408;2023-04-19T08:35:17;16.37;;;15.50;;
3036;SDS011;1528;52.550;13.408;2023-04-19T08:38:08;14.57;;;13.97;;
3036;SDS011;1528;52.550;13.408;2023-04-19T08:41:06;18.87;;;17.73;;
3036;SDS011;1528;52.550;13.408;2023-04-19T08:43:57;17.70;;;17.00;;
3036;SDS011;1528;52.550;13.408;2023-04-19T08:46:47;15.97;;;15.37;;
3036;SDS011;1528;52.550;13.408;2023-04-19T08:49:33;19.00;;;17.57;;
3036;SDS011;1528;52.550;13.408;2023-04-19T08:52:19;19.10;;;18.30;;
3036;SDS011;1528;52.550;13.408;2023-04-19T08:55:15;17.27;;;16.30;;
3036;SDS011;1528;52.550;13.408;2023-04-19T08:58:06;16.27;;;15.67;;
3036;SDS011;1528;52.550;13.408;2023-04-19T09:00:51;15.70;;;14.83;;
3036;SDS011;1528;52.550;13.408;2023-04-19T09:03:45;15.03;;;14.33;;
3036;SDS011;1528;52.550;13.408;2023-04-19T09:06:34;16.67;;;15.77;;
3036;SDS011;1528;52.550;13.408;2023-04-19T09:09:20;14.30;;;13.57;;
3036;SDS011;1528;52.550;13.408;2023-04-19T09:12:15;17.20;;;16.50;;
3036;SDS011;1528;52.550;13.408;2023-04-19T09:15:02;18.57;;;17.67;;
3036;SDS011;1528;52.550;13.408;2023-04-19T09:18:03;16.13;;;15.27;;
3036;SDS011;1528;52.550;13.408;2023-04-19T09:20:50;19.13;;;18.27;;
3036;SDS011;1528;52.550;13.408;2023-04-19T09:23:45;18.00;;;17.37;;
3036;SDS011;1528;52.550;13.408;2023-04-19T09:26:33;16.83;;;15.93;;
3036;SDS011;1528;52.550;13.408;2023-04-19T09:29:21;19.13;;;18.33;;
3036;SDS011;1528;52.550;13.408;2023-04-19T09:32:07;17.00;;;16.30;;
3036;SDS011;1528;52.550;13.408;2023-04-19T09:34:55;17.43;;;16.73;;
3036;SDS011;1528;52.550;13.408;2023-04-19T09:37:41;17.23;;;16.13;;
3036;SDS011;1528;52.550;13.408;2023-04-19T09:40:28;17.43;;;16.53;;
3036;SDS011;1528;52.550;13.408;2023-04-19T09:43:22;18.40;;;17.57;;
3036;SDS011;1528;52.550;13.408;2023-04-19T09:49:17;14.93;;;14.13;;
3036;SDS011;1528;52.550;13.408;2023-04-19T09:52:10;15.23;;;14.07;;
3036;SDS011;1528;52.550;13.408;2023-04-19T09:55:04;15.70;;;15.00;;
3036;SDS011;1528;52.550;13.408;2023-04-19T09:57:51;15.80;;;15.20;;
3036;SDS011;1528;52.550;13.408;2023-04-19T10:00:41;16.40;;;15.60;;
3036;SDS011;1528;52.550;13.408;2023-04-19T10:03:34;16.10;;;15.40;;
3036;SDS011;1528;52.550;13.408;2023-04-19T10:06:21;13.97;;;13.17;;
3036;SDS011;1528;52.550;13.408;2023-04-19T10:09:12;16.80;;;15.90;;
3036;SDS011;1528;52.550;13.408;2023-04-19T10:11:58;16.20;;;15.50;;
3036;SDS011;1528;52.550;13.408;2023-04-19T10:14:45;16.83;;;15.97;;
3036;SDS011;1528;52.550;13.408;2023-04-19T10:17:34;17.57;;;16.77;;
3036;SDS011;1528;52.550;13.408;2023-04-19T10:20:22;18.33;;;17.53;;
3036;SDS011;1528;52.550;13.408;2023-04-19T10:23:13;18.30;;;17.40;;
3036;SDS011;1528;52.550;13.408;2023-04-19T10:25:59;17.83;;;17.03;;
3036;SDS011;1528;52.550;13.408;2023-04-19T10:28:46;16.33;;;15.73;;
3036;SDS011;1528;52.550;13.408;2023-04-19T10:31:32;17.53;;;16.43;;
3036;SDS011;1528;52.550;13.408;2023-04-19T10:34:27;17.80;;;17.00;;
3036;SDS011;1528;52.550;13.408;2023-04-19T10:37:22;16.23;;;15.27;;
3036;SDS011;1528;52.550;13.408;2023-04-19T10:40:11;18.27;;;17.47;;
3036;SDS011;1528;52.550;13.408;2023-04-19T10:43:13;16.90;;;16.10;;
3036;SDS011;1528;52.550;13.408;2023-04-19T10:46:05;16.33;;;15.53;;
3036;SDS011;1528;52.550;13.408;2023-04-19T10:48:55;16.83;;;16.13;;
3036;SDS011;1528;52.550;13.408;2023-04-19T10:51:46;17.27;;;16.40;;
3036;SDS011;1528;52.550;13.408;2023-04-19T10:54:38;16.90;;;16.00;;
3036;SDS011;1528;52.550;13.408;2023-04-19T10:57:24;17.10;;;16.30;;
3036;SDS011;1528;52.550;13.408;2023-04-19T11:00:17;18.30;;;17.50;;
3036;SDS011;1528;52.550;13.408;2023-04-19T11:06:22;18.33;;;17.53;;
3036;SDS011;1528;52.550;13.408;2023-04-19T11:09:10;17.70;;;16.80;;
3036;SDS011;1528;52.550;13.408;2023-04-19T11:12:09;17.73;;;16.80;;
3036;SDS011;1528;52.550;13.408;2023-04-19T11:14:57;16.93;;;15.90;;
3036;SDS011;1528;52.550;13.408;2023-04-19T11:17:44;16.23;;;15.27;;
3036;SDS011;1528;52.550;13.408;2023-04-19T11:20:34;16.77;;;15.97;;
3036;SDS011;1528;52.550;13.408;2023-04-19T11:23:20;14.20;;;13.47;;
3036;SDS011;1528;52.550;13.408;2023-04-19T11:26:05;16.80;;;16.10;;
3036;SDS011;1528;52.550;13.408;2023-04-19T11:28:56;16.93;;;16.10;;
3036;SDS011;1528;52.550;13.408;2023-04-19T11:31:42;17.10;;;16.40;;
3036;SDS011;1528;52.550;13.408;2023-04-19T11:34:34;18.33;;;17.63;;
3036;SDS011;1528;52.550;13.408;2023-04-19T11:37:20;17.47;;;16.57;;
3036;SDS011;1528;52.550;13.408;2023-04-19T11:40:06;19.10;;;18.30;;
3036;SDS011;1528;52.550;13.408;2023-04-19T11:42:52;16.63;;;15.80;;
3036;SDS011;1528;52.550;13.408;2023-04-19T11:45:40;18.60;;;17.80;;
3036;SDS011;1528;52.550;13.408;2023-04-19T11:48:26;18.83;;;18.03;;
3036;SDS011;1528;52.550;13.408;2023-04-19T11:51:12;22.03;;;21.23;;
3036;SDS011;1528;52.550;13.408;2023-04-19T11:53:59;22.07;;;21.07;;
3036;SDS011;1528;52.550;13.408;2023-04-19T11:57:01;17.50;;;16.73;;
3036;SDS011;1528;52.550;13.408;2023-04-19T12:00:00;17.93;;;17.23;;
3036;SDS011;1528;52.550;13.408;2023-04-19T12:02:51;19.70;;;18.60;;
3036;SDS011;1528;52.550;13.408;2023-04-19T12:05:38;17.00;;;15.90;;
3036;SDS011;1528;52.550;13.408;2023-04-19T12:08:30;16.47;;;15.70;;
3036;SDS011;1528;52.550;13.408;2023-04-19T12:11:17;19.33;;;18.37;;
3036;SDS011;1528;52.550;13.408;2023-04-19T12:14:07;18.40;;;17.40;;
3036;SDS011;1528;52.550;13.408;2023-04-19T12:17:06;17.57;;;16.87;;
3036;SDS011;1528;52.550;13.408;2023-04-19T12:19:55;19.93;;;19.13;;
3036;SDS011;1528;52.550;13.408;2023-04-19T12:22:40;17.50;;;16.50;;
3036;SDS011;1528;52.550;13.408;2023-04-19T12:25:28;19.63;;;18.73;;
3036;SDS011;1528;52.550;13.408;2023-04-19T12:28:14;21.23;;;20.37;;
3036;SDS011;1528;52.550;13.408;2023-04-19T12:31:00;20.20;;;19.20;;
3036;SDS011;1528;52.550;13.408;2023-04-19T12:33:46;17.30;;;16.50;;
3036;SDS011;1528;52.550;13.408;2023-04-19T12:36:34;17.97;;;17.33;;
3036;SDS011;1528;52.550;13.408;2023-04-19T12:39:20;20.23;;;19.30;;
3036;SDS011;1528;52.550;13.408;2023-04-19T12:42:05;20.43;;;19.43;;
3036;SDS011;1528;52.550;13.408;2023-04-19T12:44:51;23.70;;;22.70;;
3036;SDS011;1528;52.550;13.408;2023-04-19T12:47:37;21.50;;;20.63;;
3036;SDS011;1528;52.550;13.408;2023-04-19T12:50:22;20.33;;;19.60;;
3036;SDS011;1528;52.550;13.408;2023-04-19T12:53:09;25.00;;;23.90;;
3036;SDS011;1528;52.550;13.408;2023-04-19T12:55:55;23.20;;;21.90;;
3036;SDS011;1528;52.550;13.408;2023-04-19T12:58:41;18.73;;;17.83;;
3036;SDS011;1528;52.550;13.408;2023-04-19T13:01:26;23.53;;;22.60;;
3036;SDS011;1528;52.550;13.408;2023-04-19T13:04:12;23.00;;;22.10;;
3036;SDS011;1528;52.550;13.408;2023-04-19T13:06:58;23.70;;;22.40;;
3036;SDS011;1528;52.550;13.408;2023-04-19T13:09:45;20.50;;;19.50;;
3036;SDS011;1528;52.550;13.408;2023-04-19T13:12:31;18.43;;;17.63;;
3036;SDS011;1528;52.550;13.408;2023-04-19T13:15:16;26.30;;;25.20;;
3036;SDS011;1528;52.550;13.408;2023-04-19T13:18:02;19.87;;;18.87;;
3036;SDS011;1528;52.550;13.408;2023-04-19T13:20:48;19.30;;;18.30;;
3036;SDS011;1528;52.550;13.408;2023-04-19T13:23:36;16.63;;;16.00;;
3036;SDS011;1528;52.550;13.408;2023-04-19T13:26:23;17.03;;;16.23;;
3036;SDS011;1528;52.550;13.408;2023-04-19T13:29:09;15.80;;;15.10;;
3036;SDS011;1528;52.550;13.408;2023-04-19T13:31:55;17.77;;;16.53;;
3036;SDS011;1528;52.550;13.408;2023-04-19T13:34:40;16.83;;;15.93;;
3036;SDS011;1528;52.550;13.408;2023-04-19T13:37:26;15.60;;;14.70;;
3036;SDS011;1528;52.550;13.408;2023-04-19T13:40:12;14.97;;;14.17;;
3036;SDS011;1528;52.550;13.408;2023-04-19T13:42:59;16.93;;;16.13;;
3036;SDS011;1528;52.550;13.408;2023-04-19T13:45:44;16.23;;;15.43;;
3036;SDS011;1528;52.550;13.408;2023-04-19T13:48:30;15.20;;;14.50;;
3036;SDS011;1528;52.550;13.408;2023-04-19T13:51:16;13.70;;;12.80;;
3036;SDS011;1528;52.550;13.408;2023-04-19T13:54:01;16.57;;;15.77;;
3036;SDS011;1528;52.550;13.408;2023-04-19T13:56:47;13.50;;;12.80;;
3036;SDS011;1528;52.550;13.408;2023-04-19T13:59:34;15.70;;;14.77;;
3036;SDS011;1528;52.550;13.408;2023-04-19T14:02:19;17.40;;;16.63;;
3036;SDS011;1528;52.550;13.408;2023-04-19T14:05:05;16.23;;;15.43;;
3036;SDS011;1528;52.550;13.408;2023-04-19T14:07:51;15.37;;;14.80;;
3036;SDS011;1528;52.550;13.408;2023-04-19T14:10:37;14.93;;;14.23;;
3036;SDS011;1528;52.550;13.408;2023-04-19T14:13:23;14.50;;;13.90;;
3036;SDS011;1528;52.550;13.408;2023-04-19T14:16:11;17.30;;;16.07;;
3036;SDS011;1528;52.550;13.408;2023-04-19T14:18:56;16.17;;;15.30;;
3036;SDS011;1528;52.550;13.408;2023-04-19T14:21:42;18.33;;;17.43;;
3036;SDS011;1528;52.550;13.408;2023-04-19T14:24:27;15.63;;;14.63;;
3036;SDS011;1528;52.550;13.408;2023-04-19T14:27:13;17.53;;;16.63;;
3036;SDS011;1528;52.550;13.408;2023-04-19T14:29:59;16.80;;;15.80;;
3036;SDS011;1528;52.550;13.408;2023-04-19T14:32:46;20.50;;;19.30;;
3036;SDS011;1528;52.550;13.408;2023-04-19T14:35:32;18.60;;;17.80;;
3036;SDS011;1528;52.550;13.408;2023-04-19T14:38:17;15.43;;;14.43;;
3036;SDS011;1528;52.550;13.408;2023-04-19T14:41:03;17.83;;;16.87;;
3036;SDS011;1528;52.550;13.408;2023-04-19T14:43:49;15.73;;;15.03;;
3036;SDS011;1528;52.550;13.408;2023-04-19T14:46:34;17.10;;;16.30;;
3036;SDS011;1528;52.550;13.408;2023-04-19T14:49:21;17.20;;;16.30;;
3036;SDS011;1528;52.550;13.408;2023-04-19T14:52:07;16.90;;;15.70;;
3036;SDS011;1528;52.550;13.408;2023-04-19T14:54:53;17.90;;;16.97;;
3036;SDS011;1528;52.550;13.408;2023-04-19T14:57:40;16.07;;;14.67;;
3036;SDS011;1528;52.550;13.408;2023-04-19T15:00:26;18.93;;;17.83;;
3036;SDS011;1528;52.550;13.408;2023-04-19T15:03:11;17.17;;;15.47;;
3036;SDS011;1528;52.550;13.408;2023-04-19T15:05:58;15.97;;;14.77;;
3036;SDS011;1528;52.550;13.408;2023-04-19T15:08:45;17.70;;;16.30;;
3036;SDS011;1528;52.550;13.408;2023-04-19T15:11:31;15.70;;;14.80;;
3036;SDS011;1528;52.550;13.408;2023-04-19T15:14:16;16.00;;;14.80;;
3036;SDS011;1528;52.550;13.408;2023-04-19T15:17:02;15.80;;;14.90;;
3036;SDS011;1528;52.550;13.408;2023-04-19T15:19:47;15.33;;;14.30;;
3036;SDS011;1528;52.550;13.408;2023-04-19T15:22:34;15.00;;;14.10;;
3036;SDS011;1528;52.550;13.408;2023-04-19T15:25:20;15.87;;;14.63;;
3036;SDS011;1528;52.550;13.408;2023-04-19T15:28:05;15.63;;;14.47;;
3036;SDS011;1528;52.550;13.408;2023-04-19T15:30:57;15.67;;;14.73;;
3036;SDS011;1528;52.550;13.408;2023-04-19T15:33:44;18.07;;;17.07;;
3036;SDS011;1528;52.550;13.408;2023-04-19T15:36:30;16.17;;;15.10;;
3036;SDS011;1528;52.550;13.408;2023-04-19T15:39:17;15.67;;;14.77;;
3036;SDS011;1528;52.550;13.408;2023-04-19T15:42:02;16.67;;;15.60;;
3036;SDS011;1528;52.550;13.408;2023-04-19T15:44:47;18.43;;;17.27;;
3036;SDS011;1528;52.550;13.408;2023-04-19T15:47:33;17.13;;;15.77;;
3036;SDS011;1528;52.550;13.408;2023-04-19T15:50:19;15.60;;;14.70;;
3036;SDS011;1528;52.550;13.408;2023-04-19T15:53:04;17.77;;;16.37;;
3036;SDS011;1528;52.550;13.408;2023-04-19T15:55:53;15.53;;;14.53;;
3036;SDS011;1528;52.550;13.408;2023-04-19T15:58:38;17.73;;;16.53;;
3036;SDS011;1528;52.550;13.408;2023-04-19T16:01:24;16.30;;;15.27;;
3036;SDS011;1528;52.550;13.408;2023-04-19T16:04:10;16.77;;;15.77;;
3036;SDS011;1528;52.550;13.408;2023-04-19T16:06:55;16.40;;;15.40;;
3036;SDS011;1528;52.550;13.408;2023-04-19T16:09:41;15.40;;;14.33;;
3036;SDS011;1528;52.550;13.408;2023-04-19T16:12:28;16.50;;;15.27;;
3036;SDS011;1528;52.550;13.408;2023-04-19T16:15:13;17.27;;;16.17;;
3036;SDS011;1528;52.550;13.408;2023-04-19T16:18:00;16.87;;;15.77;;
3036;SDS011;1528;52.550;13.408;2023-04-19T16:20:45;16.80;;;15.33;;
3036;SDS011;1528;52.550;13.408;2023-04-19T16:23:31;17.60;;;16.27;;
3036;SDS011;1528;52.550;13.408;2023-04-19T16:26:17;16.13;;;15.37;;
3036;SDS011;1528;52.550;13.408;2023-04-19T16:29:03;15.97;;;15.00;;
3036;SDS011;1528;52.550;13.408;2023-04-19T16:31:49;16.43;;;15.27;;
3036;SDS011;1528;52.550;13.408;2023-04-19T16:34:35;17.73;;;15.93;;
3036;SDS011;1528;52.550;13.408;2023-04-19T16:37:21;18.20;;;16.97;;
3036;SDS011;1528;52.550;13.408;2023-04-19T16:40:07;20.00;;;18.90;;
3036;SDS011;1528;52.550;13.408;2023-04-19T16:42:54;18.50;;;17.10;;